createdAt,value
2019-01-16T00:02:48.947Z,95.428467
2019-01-16T00:08:11.908Z,95.843506
2019-01-16T00:13:36.065Z,96.09375
2019-01-16T00:19:00.143Z,95.428467
2019-01-16T00:24:23.110Z,95.782471
2019-01-16T00:29:46.767Z,95.782471
2019-01-16T00:35:10.341Z,96.19751
2019-01-16T00:40:34.137Z,95.635986
2019-01-16T00:45:57.266Z,95.635986
2019-01-16T00:51:22.785Z,95.428467
2019-01-16T00:56:45.682Z,95.635986
2019-01-16T01:02:10.029Z,95.324707
2019-01-16T01:07:44.753Z,95.739746
2019-01-16T01:13:22.266Z,95.635986
2019-01-16T01:18:44.878Z,95.635986
2019-01-16T01:24:11.639Z,95.428467
2019-01-16T01:29:36.717Z,95.635986
2019-01-16T01:35:02.251Z,95.635986
2019-01-16T01:40:34.648Z,95.843506
2019-01-16T01:45:57.793Z,95.635986
2019-01-16T01:51:20.481Z,95.428467
2019-01-16T01:56:43.365Z,95.324707
2019-01-16T02:02:17.554Z,95.635986
2019-01-16T02:07:41.272Z,95.635986
2019-01-16T02:13:05.570Z,95.123291
2019-01-16T02:18:28.444Z,95.074463
2019-01-16T02:23:53.253Z,95.074463
2019-01-16T02:29:17.629Z,95.385742
2019-01-16T02:34:41.777Z,95.178223
2019-01-16T02:40:04.643Z,95.178223
2019-01-16T02:45:31.971Z,95.074463
2019-01-16T02:51:05.795Z,95.178223
2019-01-16T02:56:29.948Z,95.385742
2019-01-16T03:01:53.359Z,95.178223
2019-01-16T03:07:16.944Z,94.824219
2019-01-16T03:12:39.790Z,94.927979
2019-01-16T03:18:02.493Z,94.970703
2019-01-16T03:23:26.340Z,94.720459
2019-01-16T03:28:49.233Z,94.927979
2019-01-16T03:34:12.806Z,94.824219
2019-01-16T03:39:37.805Z,94.415283
2019-01-16T03:45:00.522Z,94.824219
2019-01-16T03:50:24.943Z,94.622803
2019-01-16T03:55:47.676Z,95.239258
2019-01-16T04:01:11.448Z,95.135498
2019-01-16T04:06:35.440Z,95.239258
2019-01-16T04:12:00.786Z,94.622803
2019-01-16T04:17:25.334Z,95.031738
2019-01-16T04:22:48.593Z,94.720459
2019-01-16T04:28:12.797Z,94.622803
2019-01-16T04:33:37.271Z,94.622803
2019-01-16T04:39:00.775Z,94.927979
2019-01-16T04:44:24.326Z,95.550537
2019-01-16T04:49:47.061Z,96.520996
2019-01-16T04:55:09.923Z,96.417236
2019-01-16T05:00:33.029Z,96.313477
2019-01-16T05:06:03.399Z,96.313477
2019-01-16T05:11:28.861Z,96.008301
2019-01-16T05:16:51.796Z,95.800781
2019-01-16T05:22:15.528Z,95.385742
2019-01-16T05:27:40.501Z,95.281982
2019-01-16T05:33:13.272Z,95.074463
2019-01-16T05:38:38.610Z,95.385742
2019-01-16T05:44:01.678Z,95.178223
2019-01-16T05:49:24.482Z,95.178223
2019-01-16T05:54:47.222Z,95.178223
2019-01-16T06:00:10.010Z,95.593262
2019-01-16T06:05:38.215Z,96.313477
2019-01-16T06:11:01.066Z,98.114014
2019-01-16T06:16:34.721Z,99.456787
2019-01-16T06:21:57.691Z,99.993896
2019-01-16T06:27:20.317Z,99.993896
2019-01-16T06:32:43.408Z,99.993896
2019-01-16T06:38:06.266Z,99.993896
2019-01-16T06:43:40.345Z,99.993896
2019-01-16T06:49:11.955Z,99.993896
2019-01-16T06:54:34.912Z,99.993896
2019-01-16T06:59:57.869Z,99.993896
2019-01-16T07:05:30.523Z,99.993896
2019-01-16T07:10:53.289Z,99.993896
2019-01-16T07:16:16.143Z,99.993896
2019-01-16T07:21:40.025Z,99.963379
2019-01-16T07:27:12.622Z,99.993896
2019-01-16T07:32:44.521Z,99.993896
2019-01-16T07:38:08.408Z,99.993896
2019-01-16T07:43:33.555Z,99.993896
2019-01-16T07:49:07.401Z,99.993896
2019-01-16T07:54:39.205Z,99.993896
2019-01-16T08:00:12.510Z,99.44458
2019-01-16T08:05:36.831Z,99.6521
2019-01-16T08:10:59.608Z,99.6521
2019-01-16T08:16:21.480Z,99.859619
2019-01-16T08:21:45.283Z,99.993896
2019-01-16T08:27:08.116Z,99.035645
2019-01-16T08:32:31.734Z,98.620605
2019-01-16T08:38:03.569Z,97.277832
2019-01-16T08:43:26.580Z,95.782471
2019-01-16T08:48:58.850Z,95.166016
2019-01-16T08:54:21.723Z,94.750977
2019-01-16T08:59:44.625Z,94.854736
2019-01-16T09:05:08.721Z,93.927002
2019-01-16T09:10:32.211Z,93.615723
2019-01-16T09:15:55.865Z,93.304443
2019-01-16T09:21:18.570Z,93.719482
2019-01-16T09:26:42.012Z,93.511963
2019-01-16T09:32:05.345Z,93.096924
2019-01-16T09:37:28.169Z,93.719482
2019-01-16T09:42:51.889Z,93.511963
2019-01-16T09:48:15.897Z,93.200684
2019-01-16T09:53:38.942Z,92.681885
2019-01-16T09:59:15.512Z,92.785645
2019-01-16T10:04:48.834Z,92.993164
2019-01-16T10:10:23.097Z,92.889404
2019-01-16T10:15:46.160Z,92.584229
2019-01-16T10:21:12.052Z,92.828369
2019-01-16T10:26:37.413Z,92.419434
2019-01-16T10:32:01.853Z,92.211914
2019-01-16T10:37:34.639Z,90.618896
2019-01-16T10:43:06.802Z,90.826416
2019-01-16T10:48:29.596Z,89.685059
2019-01-16T10:53:53.261Z,89.483643
2019-01-16T10:59:16.007Z,90.765381
2019-01-16T11:04:38.942Z,92.004395
2019-01-16T11:10:02.551Z,91.070557
2019-01-16T11:15:34.940Z,90.246582
2019-01-16T11:21:11.022Z,90.246582
2019-01-16T11:26:37.235Z,90.661621
2019-01-16T11:32:00.182Z,89.685059
2019-01-16T11:37:33.294Z,88.757324
2019-01-16T11:42:56.055Z,88.446045
2019-01-16T11:48:19.710Z,88.446045
2019-01-16T11:53:52.726Z,87.62207
2019-01-16T11:59:26.250Z,88.238525
2019-01-16T12:04:53.096Z,88.037109
2019-01-16T12:10:27.823Z,87.414551
2019-01-16T12:15:50.676Z,87.93335
2019-01-16T12:21:14.603Z,87.414551
2019-01-16T12:26:40.121Z,87.62207
2019-01-16T12:32:02.876Z,87.103271
2019-01-16T12:37:26.497Z,86.590576
2019-01-16T12:42:49.388Z,85.760498
2019-01-16T12:48:12.063Z,86.791992
2019-01-16T12:53:35.650Z,85.552979
2019-01-16T12:58:58.662Z,85.144043
2019-01-16T13:04:22.137Z,84.210205
2019-01-16T13:09:45.325Z,84.686279
2019-01-16T13:15:07.534Z,83.966064
2019-01-16T13:20:30.399Z,84.106445
2019-01-16T13:25:55.099Z,84.936523
2019-01-16T13:31:18.750Z,84.106445
2019-01-16T13:36:42.283Z,85.388184
2019-01-16T13:42:05.110Z,85.906982
2019-01-16T13:47:28.996Z,85.906982
2019-01-16T13:52:53.494Z,86.315918
2019-01-16T13:58:16.435Z,85.491943
2019-01-16T14:03:40.347Z,84.521484
2019-01-16T14:09:03.296Z,84.832764
2019-01-16T14:14:27.223Z,85.906982
2019-01-16T14:19:52.023Z,84.869385
2019-01-16T14:25:14.650Z,84.661865
2019-01-16T14:30:37.376Z,84.765625
2019-01-16T14:36:01.623Z,84.25293
2019-01-16T14:41:26.304Z,83.630371
2019-01-16T14:46:50.420Z,84.661865
2019-01-16T14:52:13.147Z,84.356689
2019-01-16T14:57:36.579Z,84.04541
2019-01-16T15:03:00.589Z,83.111572
2019-01-16T15:08:24.591Z,83.978271
2019-01-16T15:13:48.700Z,83.666992
2019-01-16T15:19:12.077Z,84.289551
2019-01-16T15:24:34.769Z,83.770752
2019-01-16T15:29:59.662Z,83.874512
2019-01-16T15:35:23.240Z,83.911133
2019-01-16T15:40:47.703Z,84.118652
2019-01-16T15:46:12.206Z,83.813477
2019-01-16T15:51:48.229Z,84.637451
2019-01-16T15:57:12.628Z,84.94873
2019-01-16T16:02:37.056Z,84.985352
2019-01-16T16:08:01.664Z,84.881592
2019-01-16T16:13:25.055Z,83.953857
2019-01-16T16:18:48.620Z,83.746338
2019-01-16T16:24:14.143Z,84.472656
2019-01-16T16:29:48.808Z,84.881592
2019-01-16T16:35:13.709Z,84.783936
2019-01-16T16:40:38.829Z,84.783936
2019-01-16T16:46:01.871Z,84.881592
2019-01-16T16:51:26.117Z,84.783936
2019-01-16T16:56:49.104Z,84.472656
2019-01-16T17:02:12.179Z,83.850098
2019-01-16T17:07:36.608Z,84.368896
2019-01-16T17:13:00.484Z,84.881592
2019-01-16T17:18:25.736Z,84.368896
2019-01-16T17:23:48.881Z,85.089111
2019-01-16T17:29:12.102Z,85.089111
2019-01-16T17:34:34.880Z,84.881592
2019-01-16T17:39:57.660Z,84.576416
2019-01-16T17:45:20.806Z,84.680176
2019-01-16T17:50:43.450Z,84.472656
2019-01-16T17:56:06.193Z,84.472656
2019-01-16T18:01:29.215Z,84.161377
2019-01-16T18:06:54.694Z,84.368896
2019-01-16T18:12:19.069Z,84.368896
2019-01-16T18:17:42.837Z,84.265137
2019-01-16T18:23:07.218Z,84.985352
2019-01-16T18:28:31.715Z,84.326172
2019-01-16T18:33:54.394Z,83.911133
2019-01-16T18:39:17.250Z,84.472656
2019-01-16T18:44:40.364Z,84.368896
2019-01-16T18:50:04.224Z,83.398438
2019-01-16T18:55:27.679Z,84.429932
2019-01-16T19:00:51.020Z,83.813477
2019-01-16T19:06:13.932Z,83.709717
2019-01-16T19:11:36.757Z,83.502197
2019-01-16T19:16:59.803Z,83.911133
2019-01-16T19:22:23.218Z,83.813477
2019-01-16T19:27:45.920Z,83.813477
2019-01-16T19:33:08.649Z,83.398438
2019-01-16T19:38:32.133Z,83.398438
2019-01-16T19:43:55.791Z,82.983398
2019-01-16T19:49:18.731Z,82.220459
2019-01-16T19:54:42.164Z,82.946777
2019-01-16T20:00:05.043Z,83.087158
2019-01-16T20:05:28.663Z,82.635498
2019-01-16T20:10:52.352Z,82.531738
2019-01-16T20:16:15.035Z,82.220459
2019-01-16T20:21:41.441Z,82.324219
2019-01-16T20:27:05.044Z,82.427979
2019-01-16T20:32:31.702Z,82.635498
2019-01-16T20:37:56.806Z,82.775879
2019-01-16T20:43:19.534Z,82.775879
2019-01-16T20:48:43.195Z,82.775879
2019-01-16T20:54:07.033Z,83.190918
2019-01-16T20:59:29.198Z,82.672119
2019-01-16T21:04:51.847Z,82.983398
2019-01-16T21:10:14.689Z,82.983398
2019-01-16T21:15:37.573Z,83.087158
2019-01-16T21:21:01.032Z,83.398438
2019-01-16T21:26:23.914Z,82.775879
2019-01-16T21:31:46.678Z,83.398438
2019-01-16T21:37:10.507Z,83.502197
2019-01-16T21:42:33.327Z,83.294678
2019-01-16T21:47:57.658Z,84.014893
2019-01-16T21:53:22.624Z,84.533691
2019-01-16T21:58:46.082Z,85.36377
2019-01-16T22:04:08.999Z,85.05249
2019-01-16T22:09:33.120Z,85.71167
2019-01-16T22:14:58.115Z,86.853027
2019-01-16T22:20:22.131Z,88.092041
2019-01-16T22:25:44.854Z,89.276123
2019-01-16T22:31:09.892Z,90.618896
2019-01-16T22:36:32.795Z,91.18042
2019-01-16T22:41:59.123Z,91.07666
2019-01-16T22:47:22.622Z,91.345215
2019-01-16T22:52:45.478Z,92.938232
2019-01-16T22:58:08.237Z,94.18335
2019-01-16T23:03:32.634Z,95.117188
2019-01-16T23:08:56.031Z,96.716309
2019-01-16T23:14:19.646Z,96.820068
2019-01-16T23:19:43.495Z,97.027588
2019-01-16T23:25:06.220Z,97.338867
2019-01-16T23:30:31.766Z,96.820068
2019-01-16T23:35:54.538Z,97.857666
2019-01-16T23:41:18.174Z,98.583984
2019-01-16T23:46:44.473Z,99.993896
2019-01-16T23:52:18.292Z,99.993896
2019-01-16T23:57:40.976Z,99.993896
